sensor_id;sensor_type;location;lat;lon;timestamp;pressure;altitude;pressure_sealevel;temperature;humidity
11001;BME280;5553;48.506;8.870;2023-09-19T00:00:40;96642.25;;;14.32;100.00
11001;BME280;5553;48.506;8.870;2023-09-19T00:03:09;96619.38;;;14.37;100.00
11001;BME280;5553;48.506;8.870;2023-09-19T00:05:41;96636.53;;;14.35;100.00
11001;BME280;5553;48.506;8.870;2023-09-19T00:08:09;96626.56;;;14.30;100.00
11001;BME280;5553;48.506;8.870;2023-09-19T00:10:38;96628.78;;;14.33;100.00
11001;BME280;5553;48.506;8.870;2023-09-19T00:13:10;96631.25;;;14.28;100.00
11001;BME280;5553;48.506;8.870;2023-09-19T00:15:41;96641.66;;;14.30;100.00
11001;BME280;5553;48.506;8.870;2023-09-19T00:18:15;96642.09;;;14.27;100.00
11001;BME280;5553;48.506;8.870;2023-09-19T00:20:47;96646.75;;;14.31;100.00
11001;BME280;5553;48.506;8.870;2023-09-19T00:23:16;96634.28;;;14.32;100.00
11001;BME280;5553;48.506;8.870;2023-09-19T00:25:45;96639.00;;;14.30;100.00
11001;BME280;5553;48.506;8.870;2023-09-19T00:28:16;96638.78;;;14.31;100.00
11001;BME280;5553;48.506;8.870;2023-09-19T00:30:45;96637.81;;;14.26;100.00
11001;BME280;5553;48.506;8.870;2023-09-19T00:33:15;96644.09;;;14.31;100.00
11001;BME280;5553;48.506;8.870;2023-09-19T00:35:48;96640.63;;;14.31;100.00
11001;BME280;5553;48.506;8.870;2023-09-19T00:40:45;96631.88;;;14.30;100.00
11001;BME280;5553;48.506;8.870;2023-09-19T00:43:18;96632.66;;;14.31;100.00
11001;BME280;5553;48.506;8.870;2023-09-19T00:45:48;96627.38;;;14.31;100.00
11001;BME280;5553;48.506;8.870;2023-09-19T00:48:17;96635.31;;;14.31;100.00
11001;BME280;5553;48.506;8.870;2023-09-19T00:50:48;96632.06;;;14.29;100.00
11001;BME280;5553;48.506;8.870;2023-09-19T00:53:20;96628.59;;;14.28;100.00
11001;BME280;5553;48.506;8.870;2023-09-19T00:55:51;96623.69;;;14.32;100.00
11001;BME280;5553;48.506;8.870;2023-09-19T00:58:24;96619.81;;;14.28;100.00
11001;BME280;5553;48.506;8.870;2023-09-19T01:00:59;96620.22;;;14.31;100.00
11001;BME280;5553;48.506;8.870;2023-09-19T01:03:28;96608.41;;;14.27;100.00
11001;BME280;5553;48.506;8.870;2023-09-19T01:05:57;96606.13;;;14.31;100.00
11001;BME280;5553;48.506;8.870;2023-09-19T01:08:26;96593.72;;;14.25;100.00
11001;BME280;5553;48.506;8.870;2023-09-19T01:10:59;96596.56;;;14.30;100.00
11001;BME280;5553;48.506;8.870;2023-09-19T01:13:41;96589.63;;;14.22;100.00
11001;BME280;5553;48.506;8.870;2023-09-19T01:16:19;96591.88;;;14.25;100.00
11001;BME280;5553;48.506;8.870;2023-09-19T01:19:02;96600.66;;;14.26;100.00
11001;BME280;5553;48.506;8.870;2023-09-19T01:21:42;96603.47;;;14.31;100.00
11001;BME280;5553;48.506;8.870;2023-09-19T01:24:42;96605.31;;;14.30;100.00
11001;BME280;5553;48.506;8.870;2023-09-19T01:27:28;96598.00;;;14.26;100.00
11001;BME280;5553;48.506;8.870;2023-09-19T01:30:13;96595.56;;;14.24;100.00
11001;BME280;5553;48.506;8.870;2023-09-19T01:32:42;96615.13;;;14.30;100.00
11001;BME280;5553;48.506;8.870;2023-09-19T01:35:11;96614.94;;;14.25;100.00
11001;BME280;5553;48.506;8.870;2023-09-19T01:37:40;96617.16;;;14.28;100.00
11001;BME280;5553;48.506;8.870;2023-09-19T01:40:11;96611.28;;;14.26;100.00
11001;BME280;5553;48.506;8.870;2023-09-19T01:42:45;96618.22;;;14.20;100.00
11001;BME280;5553;48.506;8.870;2023-09-19T01:45:27;96624.13;;;14.22;100.00
11001;BME280;5553;48.506;8.870;2023-09-19T01:50:30;96647.22;;;14.15;100.00
11001;BME280;5553;48.506;8.870;2023-09-19T01:53:04;96650.09;;;14.13;100.00
11001;BME280;5553;48.506;8.870;2023-09-19T01:55:37;96657.22;;;14.19;100.00
11001;BME280;5553;48.506;8.870;2023-09-19T02:00:38;96650.91;;;14.14;100.00
11001;BME280;5553;48.506;8.870;2023-09-19T02:03:09;96652.75;;;14.13;100.00
11001;BME280;5553;48.506;8.870;2023-09-19T02:05:39;96651.34;;;14.04;100.00
11001;BME280;5553;48.506;8.870;2023-09-19T02:08:07;96649.31;;;14.06;100.00
11001;BME280;5553;48.506;8.870;2023-09-19T02:10:36;96652.56;;;14.08;100.00
11001;BME280;5553;48.506;8.870;2023-09-19T02:13:06;96656.66;;;14.04;100.00
11001;BME280;5553;48.506;8.870;2023-09-19T02:15:40;96649.97;;;13.95;100.00
11001;BME280;5553;48.506;8.870;2023-09-19T02:18:11;96647.31;;;13.95;100.00
11001;BME280;5553;48.506;8.870;2023-09-19T02:20:40;96644.47;;;13.83;100.00
11001;BME280;5553;48.506;8.870;2023-09-19T02:23:09;96647.13;;;13.83;100.00
11001;BME280;5553;48.506;8.870;2023-09-19T02:25:38;96644.31;;;13.78;100.00
11001;BME280;5553;48.506;8.870;2023-09-19T02:28:08;96656.31;;;13.81;100.00
11001;BME280;5553;48.506;8.870;2023-09-19T02:30:36;96662.25;;;13.76;100.00
11001;BME280;5553;48.506;8.870;2023-09-19T02:33:07;96657.97;;;13.75;100.00
11001;BME280;5553;48.506;8.870;2023-09-19T02:35:36;96664.47;;;13.86;100.00
11001;BME280;5553;48.506;8.870;2023-09-19T02:38:06;96673.84;;;13.95;100.00
11001;BME280;5553;48.506;8.870;2023-09-19T02:40:37;96670.16;;;13.96;100.00
11001;BME280;5553;48.506;8.870;2023-09-19T02:43:06;96659.72;;;14.01;100.00
11001;BME280;5553;48.506;8.870;2023-09-19T02:45:35;96655.44;;;14.00;100.00
11001;BME280;5553;48.506;8.870;2023-09-19T02:48:07;96668.47;;;14.08;100.00
11001;BME280;5553;48.506;8.870;2023-09-19T02:50:37;96673.34;;;14.11;100.00
11001;BME280;5553;48.506;8.870;2023-09-19T02:53:05;96664.97;;;14.14;100.00
11001;BME280;5553;48.506;8.870;2023-09-19T02:55:36;96660.66;;;14.27;100.00
11001;BME280;5553;48.506;8.870;2023-09-19T03:00:33;96652.88;;;14.32;100.00
11001;BME280;5553;48.506;8.870;2023-09-19T03:03:04;96656.56;;;14.31;100.00
11001;BME280;5553;48.506;8.870;2023-09-19T03:05:36;96659.03;;;14.26;100.00
11001;BME280;5553;48.506;8.870;2023-09-19T03:08:05;96652.09;;;14.25;100.00
11001;BME280;5553;48.506;8.870;2023-09-19T03:10:37;96654.16;;;14.22;100.00
11001;BME280;5553;48.506;8.870;2023-09-19T03:13:10;96659.66;;;14.21;100.00
11001;BME280;5553;48.506;8.870;2023-09-19T03:15:41;96682.09;;;14.18;100.00
11001;BME280;5553;48.506;8.870;2023-09-19T03:20:42;96697.84;;;14.20;100.00
11001;BME280;5553;48.506;8.870;2023-09-19T03:23:11;96702.31;;;14.19;100.00
11001;BME280;5553;48.506;8.870;2023-09-19T03:25:40;96712.13;;;14.26;100.00
11001;BME280;5553;48.506;8.870;2023-09-19T03:28:08;96714.16;;;14.23;100.00
11001;BME280;5553;48.506;8.870;2023-09-19T05:57:54;96830.88;;;14.30;100.00
11001;BME280;5553;48.506;8.870;2023-09-19T06:00:23;96826.81;;;14.28;100.00
11001;BME280;5553;48.506;8.870;2023-09-19T06:02:53;96829.47;;;14.28;100.00
11001;BME280;5553;48.506;8.870;2023-09-19T06:05:23;96831.53;;;14.26;100.00
11001;BME280;5553;48.506;8.870;2023-09-19T06:07:52;96838.63;;;14.32;100.00
11001;BME280;5553;48.506;8.870;2023-09-19T06:10:21;96837.81;;;14.31;100.00
11001;BME280;5553;48.506;8.870;2023-09-19T06:12:50;96837.81;;;14.31;100.00
11001;BME280;5553;48.506;8.870;2023-09-19T06:15:23;96854.78;;;14.30;100.00
11001;BME280;5553;48.506;8.870;2023-09-19T06:17:57;96850.06;;;14.32;100.00
11001;BME280;5553;48.506;8.870;2023-09-19T06:20:28;96854.16;;;14.35;100.00
11001;BME280;5553;48.506;8.870;2023-09-19T08:58:44;96762.28;;;16.97;100.00
11001;BME280;5553;48.506;8.870;2023-09-19T10:54:57;96746.19;;;19.04;82.13
11001;BME280;5553;48.506;8.870;2023-09-19T11:05:11;96757.69;;;21.00;77.47
